sensor_id;sensor_type;location;lat;lon;timestamp;pressure;altitude;pressure_sealevel;temperature;humidity
29825;BME280;16713;52.916;12.834;2023-05-22T00:01:00;101241.03;;;15.66;64.82
29825;BME280;16713;52.916;12.834;2023-05-22T00:03:30;101251.75;;;15.71;64.56
29825;BME280;16713;52.916;12.834;2023-05-22T00:05:56;101244.00;;;15.80;64.26
29825;BME280;16713;52.916;12.834;2023-05-22T00:08:25;101251.38;;;15.73;63.85
29825;BME280;16713;52.916;12.834;2023-05-22T00:10:54;101238.91;;;15.53;64.07
29825;BME280;16713;52.916;12.834;2023-05-22T00:13:21;101241.19;;;15.77;63.60
29825;BME280;16713;52.916;12.834;2023-05-22T00:15:48;101246.34;;;15.78;62.69
29825;BME280;16713;52.916;12.834;2023-05-22T00:18:14;101243.94;;;15.77;63.15
29825;BME280;16713;52.916;12.834;2023-05-22T00:20:41;101235.31;;;15.82;63.13
29825;BME280;16713;52.916;12.834;2023-05-22T00:23:07;101237.56;;;15.73;62.77
29825;BME280;16713;52.916;12.834;2023-05-22T00:25:35;101237.28;;;15.81;63.36
29825;BME280;16713;52.916;12.834;2023-05-22T00:28:03;101239.94;;;15.71;62.39
29825;BME280;16713;52.916;12.834;2023-05-22T00:30:30;101242.81;;;15.81;61.77
29825;BME280;16713;52.916;12.834;2023-05-22T00:32:56;101235.34;;;15.85;61.83
29825;BME280;16713;52.916;12.834;2023-05-22T00:35:23;101243.47;;;16.04;61.05
29825;BME280;16713;52.916;12.834;2023-05-22T00:37:50;101237.06;;;15.97;60.67
29825;BME280;16713;52.916;12.834;2023-05-22T00:40:16;101230.69;;;15.93;60.80
29825;BME280;16713;52.916;12.834;2023-05-22T00:42:43;101236.22;;;15.93;61.62
29825;BME280;16713;52.916;12.834;2023-05-22T00:45:10;101236.91;;;15.83;62.61
29825;BME280;16713;52.916;12.834;2023-05-22T00:47:37;101232.94;;;15.84;62.00
29825;BME280;16713;52.916;12.834;2023-05-22T00:50:05;101234.34;;;15.67;63.06
29825;BME280;16713;52.916;12.834;2023-05-22T00:52:34;101234.25;;;15.60;62.82
29825;BME280;16713;52.916;12.834;2023-05-22T00:55:02;101229.91;;;15.59;60.96
29825;BME280;16713;52.916;12.834;2023-05-22T00:57:30;101239.34;;;15.58;61.88
29825;BME280;16713;52.916;12.834;2023-05-22T01:00:00;101243.91;;;15.73;62.25
29825;BME280;16713;52.916;12.834;2023-05-22T01:02:28;101237.34;;;15.55;61.93
29825;BME280;16713;52.916;12.834;2023-05-22T01:04:58;101241.72;;;15.56;62.26
29825;BME280;16713;52.916;12.834;2023-05-22T01:07:24;101236.59;;;15.58;61.90
29825;BME280;16713;52.916;12.834;2023-05-22T01:09:51;101228.50;;;15.46;62.75
29825;BME280;16713;52.916;12.834;2023-05-22T01:12:43;101236.25;;;15.37;61.28
29825;BME280;16713;52.916;12.834;2023-05-22T01:15:19;101239.31;;;15.55;62.38
29825;BME280;16713;52.916;12.834;2023-05-22T01:17:54;101236.00;;;15.46;61.89
29825;BME280;16713;52.916;12.834;2023-05-22T01:20:42;101243.63;;;15.52;61.52
29825;BME280;16713;52.916;12.834;2023-05-22T01:25:59;101233.00;;;15.28;62.39
29825;BME280;16713;52.916;12.834;2023-05-22T01:31:14;101241.22;;;15.25;62.27
29825;BME280;16713;52.916;12.834;2023-05-22T01:33:45;101237.13;;;15.15;63.07
29825;BME280;16713;52.916;12.834;2023-05-22T01:36:14;101240.66;;;15.12;62.92
29825;BME280;16713;52.916;12.834;2023-05-22T01:38:45;101241.66;;;15.27;61.27
29825;BME280;16713;52.916;12.834;2023-05-22T01:41:12;101236.41;;;14.92;63.87
29825;BME280;16713;52.916;12.834;2023-05-22T01:43:40;101241.44;;;14.87;63.70
29825;BME280;16713;52.916;12.834;2023-05-22T01:46:07;101233.41;;;14.78;62.85
29825;BME280;16713;52.916;12.834;2023-05-22T01:48:34;101237.13;;;14.89;63.39
29825;BME280;16713;52.916;12.834;2023-05-22T01:51:13;101227.69;;;14.90;62.87
29825;BME280;16713;52.916;12.834;2023-05-22T01:54:18;101223.59;;;14.81;62.49
29825;BME280;16713;52.916;12.834;2023-05-22T01:56:56;101223.03;;;14.71;63.92
29825;BME280;16713;52.916;12.834;2023-05-22T02:02:05;101225.78;;;14.68;63.93
29825;BME280;16713;52.916;12.834;2023-05-22T02:04:37;101232.34;;;14.60;63.72
29825;BME280;16713;52.916;12.834;2023-05-22T02:07:05;101226.16;;;14.47;64.10
29825;BME280;16713;52.916;12.834;2023-05-22T02:09:32;101217.69;;;14.37;64.45
29825;BME280;16713;52.916;12.834;2023-05-22T02:12:00;101222.84;;;14.38;64.74
29825;BME280;16713;52.916;12.834;2023-05-22T02:14:27;101232.53;;;14.51;63.24
29825;BME280;16713;52.916;12.834;2023-05-22T02:16:55;101219.03;;;14.24;63.90
29825;BME280;16713;52.916;12.834;2023-05-22T02:19:22;101225.84;;;14.52;63.72
29825;BME280;16713;52.916;12.834;2023-05-22T02:21:48;101218.53;;;14.41;64.11
29825;BME280;16713;52.916;12.834;2023-05-22T02:24:15;101218.22;;;14.42;63.23
29825;BME280;16713;52.916;12.834;2023-05-22T02:26:41;101208.53;;;14.33;64.81
29825;BME280;16713;52.916;12.834;2023-05-22T02:29:08;101191.00;;;14.22;64.25
29825;BME280;16713;52.916;12.834;2023-05-22T02:31:35;101206.53;;;14.52;63.50
29825;BME280;16713;52.916;12.834;2023-05-22T02:34:01;101200.09;;;14.45;64.01
29825;BME280;16713;52.916;12.834;2023-05-22T02:36:30;101199.78;;;14.50;63.83
29825;BME280;16713;52.916;12.834;2023-05-22T02:39:00;101203.53;;;14.38;63.37
29825;BME280;16713;52.916;12.834;2023-05-22T02:41:26;101187.13;;;14.49;63.75
29825;BME280;16713;52.916;12.834;2023-05-22T02:43:53;101197.41;;;14.48;62.58
29825;BME280;16713;52.916;12.834;2023-05-22T02:46:19;101192.25;;;14.47;63.03
29825;BME280;16713;52.916;12.834;2023-05-22T02:48:46;101189.22;;;14.33;63.72
29825;BME280;16713;52.916;12.834;2023-05-22T02:51:12;101192.63;;;14.23;63.08
29825;BME280;16713;52.916;12.834;2023-05-22T02:53:39;101188.88;;;14.34;64.40
29825;BME280;16713;52.916;12.834;2023-05-22T02:56:07;101184.72;;;14.21;63.93
29825;BME280;16713;52.916;12.834;2023-05-22T02:58:34;101188.81;;;14.31;63.01
29825;BME280;16713;52.916;12.834;2023-05-22T03:01:00;101182.88;;;14.29;63.40
29825;BME280;16713;52.916;12.834;2023-05-22T03:03:28;101183.72;;;14.33;64.00
29825;BME280;16713;52.916;12.834;2023-05-22T03:05:56;101187.22;;;14.30;62.48
29825;BME280;16713;52.916;12.834;2023-05-22T03:08:24;101187.28;;;14.33;62.79
29825;BME280;16713;52.916;12.834;2023-05-22T03:10:54;101176.31;;;14.14;63.72
29825;BME280;16713;52.916;12.834;2023-05-22T03:13:21;101180.19;;;14.32;63.43
29825;BME280;16713;52.916;12.834;2023-05-22T03:15:48;101179.75;;;14.30;63.18
29825;BME280;16713;52.916;12.834;2023-05-22T03:18:14;101178.75;;;14.42;61.90
29825;BME280;16713;52.916;12.834;2023-05-22T03:20:41;101185.69;;;14.55;63.25
29825;BME280;16713;52.916;12.834;2023-05-22T03:23:10;101181.22;;;14.47;62.16
29825;BME280;16713;52.916;12.834;2023-05-22T03:25:37;101183.06;;;14.62;61.89
29825;BME280;16713;52.916;12.834;2023-05-22T03:28:03;101193.00;;;14.66;61.51
29825;BME280;16713;52.916;12.834;2023-05-22T03:30:30;101182.31;;;14.42;64.03
29825;BME280;16713;52.916;12.834;2023-05-22T03:32:56;101187.69;;;14.58;62.26
29825;BME280;16713;52.916;12.834;2023-05-22T03:35:23;101188.16;;;14.60;63.01
29825;BME280;16713;52.916;12.834;2023-05-22T03:37:50;101180.63;;;14.34;64.19
29825;BME280;16713;52.916;12.834;2023-05-22T03:40:17;101182.34;;;14.46;62.27
29825;BME280;16713;52.916;12.834;2023-05-22T03:42:43;101191.44;;;14.46;64.30
29825;BME280;16713;52.916;12.834;2023-05-22T03:45:10;101188.38;;;14.51;62.85
29825;BME280;16713;52.916;12.834;2023-05-22T03:47:36;101194.91;;;14.62;63.08
29825;BME280;16713;52.916;12.834;2023-05-22T03:50:03;101182.06;;;14.51;63.58
29825;BME280;16713;52.916;12.834;2023-05-22T03:52:30;101179.13;;;14.18;64.09
29825;BME280;16713;52.916;12.834;2023-05-22T03:54:56;101177.28;;;14.48;63.40
29825;BME280;16713;52.916;12.834;2023-05-22T03:57:23;101183.84;;;14.62;63.88
29825;BME280;16713;52.916;12.834;2023-05-22T03:59:49;101175.38;;;14.52;63.56
29825;BME280;16713;52.916;12.834;2023-05-22T04:02:16;101184.72;;;14.66;61.92
29825;BME280;16713;52.916;12.834;2023-05-22T04:04:42;101181.03;;;14.59;62.68
29825;BME280;16713;52.916;12.834;2023-05-22T04:07:11;101184.75;;;14.70;62.26
29825;BME280;16713;52.916;12.834;2023-05-22T04:09:39;101179.97;;;14.67;62.88
29825;BME280;16713;52.916;12.834;2023-05-22T04:12:06;101192.66;;;14.71;62.28
29825;BME280;16713;52.916;12.834;2023-05-22T04:14:33;101194.56;;;14.90;63.34
29825;BME280;16713;52.916;12.834;2023-05-22T04:17:00;101194.63;;;14.97;62.67
29825;BME280;16713;52.916;12.834;2023-05-22T04:19:26;101188.91;;;14.83;62.54
29825;BME280;16713;52.916;12.834;2023-05-22T04:21:53;101185.31;;;14.79;63.11
29825;BME280;16713;52.916;12.834;2023-05-22T04:24:20;101180.41;;;14.95;62.85
29825;BME280;16713;52.916;12.834;2023-05-22T04:26:48;101189.03;;;14.90;61.99
29825;BME280;16713;52.916;12.834;2023-05-22T04:29:15;101182.81;;;14.97;63.37
29825;BME280;16713;52.916;12.834;2023-05-22T04:31:42;101182.13;;;15.03;62.41
29825;BME280;16713;52.916;12.834;2023-05-22T04:34:14;101188.78;;;15.02;62.04
29825;BME280;16713;52.916;12.834;2023-05-22T04:36:40;101181.41;;;15.10;63.68
29825;BME280;16713;52.916;12.834;2023-05-22T04:39:07;101185.38;;;14.83;63.09
29825;BME280;16713;52.916;12.834;2023-05-22T04:41:33;101185.34;;;15.09;62.69
29825;BME280;16713;52.916;12.834;2023-05-22T04:44:00;101185.28;;;15.05;63.72
29825;BME280;16713;52.916;12.834;2023-05-22T04:46:29;101184.34;;;14.94;61.99
29825;BME280;16713;52.916;12.834;2023-05-22T04:48:55;101189.22;;;15.04;62.76
29825;BME280;16713;52.916;12.834;2023-05-22T04:51:27;101182.63;;;15.12;63.02
29825;BME280;16713;52.916;12.834;2023-05-22T04:53:55;101182.75;;;15.19;61.82
29825;BME280;16713;52.916;12.834;2023-05-22T04:56:21;101183.50;;;15.20;62.55
29825;BME280;16713;52.916;12.834;2023-05-22T04:59:01;101181.97;;;15.22;62.70
29825;BME280;16713;52.916;12.834;2023-05-22T05:01:29;101185.41;;;15.42;62.43
29825;BME280;16713;52.916;12.834;2023-05-22T05:03:58;101195.28;;;15.43;62.41
29825;BME280;16713;52.916;12.834;2023-05-22T05:06:25;101185.44;;;15.45;62.65
29825;BME280;16713;52.916;12.834;2023-05-22T05:08:52;101184.13;;;15.36;61.72
29825;BME280;16713;52.916;12.834;2023-05-22T05:11:19;101179.66;;;15.54;62.97
29825;BME280;16713;52.916;12.834;2023-05-22T05:13:46;101179.81;;;15.68;62.67
29825;BME280;16713;52.916;12.834;2023-05-22T05:16:13;101179.66;;;15.54;61.74
29825;BME280;16713;52.916;12.834;2023-05-22T05:18:39;101181.88;;;15.74;61.38
29825;BME280;16713;52.916;12.834;2023-05-22T05:21:06;101181.00;;;15.67;60.73
29825;BME280;16713;52.916;12.834;2023-05-22T05:23:33;101181.47;;;15.72;62.11
29825;BME280;16713;52.916;12.834;2023-05-22T05:25:59;101189.06;;;15.79;61.13
29825;BME280;16713;52.916;12.834;2023-05-22T05:28:26;101182.44;;;15.87;61.42
29825;BME280;16713;52.916;12.834;2023-05-22T05:30:52;101193.59;;;15.97;62.19
29825;BME280;16713;52.916;12.834;2023-05-22T05:33:19;101196.34;;;15.97;61.58
29825;BME280;16713;52.916;12.834;2023-05-22T05:35:45;101198.06;;;16.09;62.83
29825;BME280;16713;52.916;12.834;2023-05-22T05:38:12;101197.53;;;15.96;63.19
29825;BME280;16713;52.916;12.834;2023-05-22T05:40:38;101184.38;;;15.86;61.42
29825;BME280;16713;52.916;12.834;2023-05-22T05:43:05;101200.03;;;16.08;62.28
29825;BME280;16713;52.916;12.834;2023-05-22T05:45:34;101200.50;;;16.18;61.71
29825;BME280;16713;52.916;12.834;2023-05-22T05:48:01;101197.69;;;16.10;61.58
29825;BME280;16713;52.916;12.834;2023-05-22T05:50:27;101191.69;;;16.05;62.70
29825;BME280;16713;52.916;12.834;2023-05-22T05:52:54;101197.47;;;16.30;62.07
29825;BME280;16713;52.916;12.834;2023-05-22T05:55:20;101202.34;;;16.40;62.38
29825;BME280;16713;52.916;12.834;2023-05-22T05:57:47;101198.81;;;16.43;63.24
29825;BME280;16713;52.916;12.834;2023-05-22T06:00:14;101201.81;;;16.27;61.80
29825;BME280;16713;52.916;12.834;2023-05-22T06:02:41;101192.94;;;16.48;62.69
29825;BME280;16713;52.916;12.834;2023-05-22T06:05:08;101198.16;;;16.60;61.94
29825;BME280;16713;52.916;12.834;2023-05-22T06:07:35;101195.81;;;16.62;63.37
29825;BME280;16713;52.916;12.834;2023-05-22T06:10:09;101199.75;;;16.61;63.49
29825;BME280;16713;52.916;12.834;2023-05-22T06:12:36;101198.66;;;16.69;62.27
29825;BME280;16713;52.916;12.834;2023-05-22T06:15:04;101199.47;;;16.76;62.35
29825;BME280;16713;52.916;12.834;2023-05-22T06:17:33;101195.88;;;16.72;62.26
29825;BME280;16713;52.916;12.834;2023-05-22T06:20:00;101199.38;;;16.66;64.07
29825;BME280;16713;52.916;12.834;2023-05-22T06:22:26;101202.16;;;16.62;62.45
29825;BME280;16713;52.916;12.834;2023-05-22T06:24:54;101193.00;;;16.58;63.24
29825;BME280;16713;52.916;12.834;2023-05-22T06:27:21;101196.19;;;16.60;64.19
29825;BME280;16713;52.916;12.834;2023-05-22T06:29:51;101192.97;;;16.55;63.09
29825;BME280;16713;52.916;12.834;2023-05-22T06:32:17;101202.72;;;16.89;62.62
29825;BME280;16713;52.916;12.834;2023-05-22T06:34:47;101206.34;;;16.96;62.94
29825;BME280;16713;52.916;12.834;2023-05-22T06:37:14;101204.88;;;17.13;62.65
29825;BME280;16713;52.916;12.834;2023-05-22T06:39:41;101212.00;;;17.14;62.26
29825;BME280;16713;52.916;12.834;2023-05-22T06:42:07;101206.44;;;17.07;62.58
29825;BME280;16713;52.916;12.834;2023-05-22T06:44:34;101198.81;;;16.97;62.32
29825;BME280;16713;52.916;12.834;2023-05-22T06:47:00;101217.69;;;17.31;64.19
29825;BME280;16713;52.916;12.834;2023-05-22T06:49:27;101214.94;;;17.38;63.14
29825;BME280;16713;52.916;12.834;2023-05-22T06:51:53;101219.34;;;17.46;63.26
29825;BME280;16713;52.916;12.834;2023-05-22T06:54:20;101219.44;;;17.68;61.42
29825;BME280;16713;52.916;12.834;2023-05-22T06:56:46;101222.25;;;17.78;62.42
29825;BME280;16713;52.916;12.834;2023-05-22T06:59:13;101224.75;;;17.97;62.19
29825;BME280;16713;52.916;12.834;2023-05-22T07:01:39;101228.34;;;18.12;61.55
29825;BME280;16713;52.916;12.834;2023-05-22T07:04:06;101230.38;;;18.32;63.66
29825;BME280;16713;52.916;12.834;2023-05-22T07:06:34;101226.81;;;18.46;63.07
29825;BME280;16713;52.916;12.834;2023-05-22T07:09:08;101224.44;;;18.51;62.03
29825;BME280;16713;52.916;12.834;2023-05-22T07:11:36;101218.09;;;18.58;60.09
29825;BME280;16713;52.916;12.834;2023-05-22T07:14:03;101225.25;;;18.83;60.15
29825;BME280;16713;52.916;12.834;2023-05-22T07:16:29;101228.41;;;19.00;61.31
29825;BME280;16713;52.916;12.834;2023-05-22T07:18:56;101230.78;;;18.98;59.96
29825;BME280;16713;52.916;12.834;2023-05-22T07:21:23;101230.72;;;19.29;61.06
29825;BME280;16713;52.916;12.834;2023-05-22T07:23:50;101223.19;;;19.23;58.29
29825;BME280;16713;52.916;12.834;2023-05-22T07:26:18;101212.50;;;19.14;58.09
29825;BME280;16713;52.916;12.834;2023-05-22T07:28:44;101231.50;;;19.47;58.00
29825;BME280;16713;52.916;12.834;2023-05-22T07:31:11;101229.47;;;19.62;59.54
29825;BME280;16713;52.916;12.834;2023-05-22T07:33:37;101215.56;;;19.62;57.26
29825;BME280;16713;52.916;12.834;2023-05-22T07:36:04;101227.03;;;19.74;56.51
29825;BME280;16713;52.916;12.834;2023-05-22T07:38:31;101226.56;;;19.90;59.88
29825;BME280;16713;52.916;12.834;2023-05-22T07:40:58;101224.63;;;19.83;57.44
29825;BME280;16713;52.916;12.834;2023-05-22T07:43:24;101218.22;;;19.90;57.11
29825;BME280;16713;52.916;12.834;2023-05-22T07:45:51;101230.03;;;20.08;59.80
29825;BME280;16713;52.916;12.834;2023-05-22T07:48:19;101227.25;;;20.11;56.52
29825;BME280;16713;52.916;12.834;2023-05-22T07:50:46;101223.63;;;20.25;56.56
29825;BME280;16713;52.916;12.834;2023-05-22T07:53:12;101229.47;;;20.41;58.92
29825;BME280;16713;52.916;12.834;2023-05-22T07:55:39;101226.69;;;20.41;57.04
29825;BME280;16713;52.916;12.834;2023-05-22T07:58:06;101222.25;;;20.47;56.89
29825;BME280;16713;52.916;12.834;2023-05-22T08:00:33;101226.59;;;20.52;57.36
29825;BME280;16713;52.916;12.834;2023-05-22T08:03:00;101230.53;;;20.58;57.09
29825;BME280;16713;52.916;12.834;2023-05-22T08:05:26;101220.59;;;20.57;56.74
29825;BME280;16713;52.916;12.834;2023-05-22T08:07:53;101222.97;;;20.58;56.72
29825;BME280;16713;52.916;12.834;2023-05-22T08:10:19;101224.84;;;20.72;56.09
29825;BME280;16713;52.916;12.834;2023-05-22T08:12:46;101229.13;;;20.87;58.14
29825;BME280;16713;52.916;12.834;2023-05-22T08:15:12;101236.19;;;20.98;58.56
29825;BME280;16713;52.916;12.834;2023-05-22T08:17:39;101237.38;;;21.01;56.98
29825;BME280;16713;52.916;12.834;2023-05-22T08:20:06;101233.00;;;20.96;54.39
29825;BME280;16713;52.916;12.834;2023-05-22T08:22:35;101228.19;;;21.04;55.65
29825;BME280;16713;52.916;12.834;2023-05-22T08:25:02;101237.56;;;21.20;57.01
29825;BME280;16713;52.916;12.834;2023-05-22T08:27:29;101234.31;;;21.25;56.39
29825;BME280;16713;52.916;12.834;2023-05-22T08:29:56;101225.97;;;21.22;54.28
29825;BME280;16713;52.916;12.834;2023-05-22T08:32:22;101228.31;;;21.27;55.14
29825;BME280;16713;52.916;12.834;2023-05-22T08:34:49;101221.59;;;21.21;53.79
29825;BME280;16713;52.916;12.834;2023-05-22T08:37:15;101217.56;;;21.25;54.24
29825;BME280;16713;52.916;12.834;2023-05-22T08:39:42;101209.19;;;21.25;54.41
29825;BME280;16713;52.916;12.834;2023-05-22T08:42:08;101219.44;;;21.39;55.87
29825;BME280;16713;52.916;12.834;2023-05-22T08:44:35;101207.91;;;21.33;55.38
29825;BME280;16713;52.916;12.834;2023-05-22T08:47:03;101222.28;;;21.32;55.80
29825;BME280;16713;52.916;12.834;2023-05-22T08:49:35;101214.56;;;21.43;55.81
29825;BME280;16713;52.916;12.834;2023-05-22T08:52:12;101207.88;;;21.37;53.40
29825;BME280;16713;52.916;12.834;2023-05-22T08:54:40;101211.38;;;21.44;54.42
29825;BME280;16713;52.916;12.834;2023-05-22T08:57:10;101214.91;;;21.48;54.47
29825;BME280;16713;52.916;12.834;2023-05-22T08:59:37;101201.03;;;21.41;54.17
29825;BME280;16713;52.916;12.834;2023-05-22T09:02:05;101201.38;;;21.47;55.37
29825;BME280;16713;52.916;12.834;2023-05-22T09:04:32;101202.91;;;21.51;54.63
29825;BME280;16713;52.916;12.834;2023-05-22T09:06:58;101193.78;;;21.47;54.17
29825;BME280;16713;52.916;12.834;2023-05-22T09:09:35;101198.44;;;21.61;55.28
29825;BME280;16713;52.916;12.834;2023-05-22T09:12:02;101199.94;;;21.69;54.79
29825;BME280;16713;52.916;12.834;2023-05-22T09:14:37;101197.97;;;21.66;54.93
29825;BME280;16713;52.916;12.834;2023-05-22T09:17:04;101196.25;;;21.76;56.21
29825;BME280;16713;52.916;12.834;2023-05-22T09:19:30;101191.78;;;21.82;54.66
29825;BME280;16713;52.916;12.834;2023-05-22T09:22:05;101178.41;;;21.70;54.10
29825;BME280;16713;52.916;12.834;2023-05-22T09:24:44;101193.00;;;21.81;53.06
29825;BME280;16713;52.916;12.834;2023-05-22T09:27:11;101183.81;;;21.80;53.10
29825;BME280;16713;52.916;12.834;2023-05-22T09:29:54;101189.22;;;21.94;52.94
29825;BME280;16713;52.916;12.834;2023-05-22T09:32:22;101194.75;;;21.98;54.30
29825;BME280;16713;52.916;12.834;2023-05-22T09:34:49;101189.91;;;22.02;53.91
29825;BME280;16713;52.916;12.834;2023-05-22T09:37:16;101195.28;;;22.16;54.82
29825;BME280;16713;52.916;12.834;2023-05-22T09:39:44;101192.44;;;22.19;55.65
29825;BME280;16713;52.916;12.834;2023-05-22T09:42:14;101198.78;;;22.23;56.26
29825;BME280;16713;52.916;12.834;2023-05-22T09:44:47;101186.03;;;22.22;53.68
29825;BME280;16713;52.916;12.834;2023-05-22T09:47:14;101174.38;;;22.27;52.89
29825;BME280;16713;52.916;12.834;2023-05-22T09:49:42;101183.25;;;22.22;53.71
29825;BME280;16713;52.916;12.834;2023-05-22T09:52:09;101169.50;;;22.05;51.51
29825;BME280;16713;52.916;12.834;2023-05-22T09:54:46;101177.91;;;22.31;54.40
29825;BME280;16713;52.916;12.834;2023-05-22T09:57:16;101173.16;;;22.28;53.68
29825;BME280;16713;52.916;12.834;2023-05-22T09:59:49;101166.38;;;22.29;53.39
29825;BME280;16713;52.916;12.834;2023-05-22T10:02:24;101166.66;;;22.35;52.50
29825;BME280;16713;52.916;12.834;2023-05-22T10:04:51;101161.97;;;22.28;50.44
29825;BME280;16713;52.916;12.834;2023-05-22T10:07:23;101169.16;;;22.29;52.01
29825;BME280;16713;52.916;12.834;2023-05-22T10:09:51;101154.41;;;22.29;50.51
29825;BME280;16713;52.916;12.834;2023-05-22T10:12:20;101156.44;;;22.25;52.12
29825;BME280;16713;52.916;12.834;2023-05-22T10:14:48;101156.28;;;22.35;50.21
29825;BME280;16713;52.916;12.834;2023-05-22T10:17:15;101163.03;;;22.38;51.95
29825;BME280;16713;52.916;12.834;2023-05-22T10:19:42;101155.59;;;22.28;51.12
29825;BME280;16713;52.916;12.834;2023-05-22T10:22:13;101160.22;;;22.38;50.57
29825;BME280;16713;52.916;12.834;2023-05-22T10:24:47;101155.81;;;22.40;51.14
29825;BME280;16713;52.916;12.834;2023-05-22T10:27:13;101146.66;;;22.36;50.47
29825;BME280;16713;52.916;12.834;2023-05-22T10:29:48;101133.91;;;22.35;49.94
29825;BME280;16713;52.916;12.834;2023-05-22T10:32:36;101141.13;;;22.33;51.13
29825;BME280;16713;52.916;12.834;2023-05-22T10:35:19;101140.00;;;22.30;50.72
29825;BME280;16713;52.916;12.834;2023-05-22T10:38:00;101149.03;;;22.38;51.86
29825;BME280;16713;52.916;12.834;2023-05-22T10:40:32;101140.78;;;22.31;52.19
29825;BME280;16713;52.916;12.834;2023-05-22T10:42:59;101127.97;;;22.33;49.78
29825;BME280;16713;52.916;12.834;2023-05-22T10:45:27;101125.09;;;22.37;49.58
29825;BME280;16713;52.916;12.834;2023-05-22T10:48:01;101127.53;;;22.35;50.07
29825;BME280;16713;52.916;12.834;2023-05-22T10:50:29;101121.13;;;22.34;50.03
29825;BME280;16713;52.916;12.834;2023-05-22T10:53:25;101118.72;;;22.36;48.28
29825;BME280;16713;52.916;12.834;2023-05-22T10:55:56;101112.75;;;22.34;48.34
29825;BME280;16713;52.916;12.834;2023-05-22T10:58:27;101117.91;;;22.36;49.46
29825;BME280;16713;52.916;12.834;2023-05-22T11:01:16;101113.38;;;22.45;50.13
29825;BME280;16713;52.916;12.834;2023-05-22T11:09:39;101108.63;;;22.42;49.94
29825;BME280;16713;52.916;12.834;2023-05-22T11:12:31;101103.81;;;22.43;48.89
29825;BME280;16713;52.916;12.834;2023-05-22T11:14:58;101109.38;;;22.46;52.09
29825;BME280;16713;52.916;12.834;2023-05-22T11:17:26;101096.41;;;22.33;48.58
29825;BME280;16713;52.916;12.834;2023-05-22T11:20:23;101101.41;;;22.45;51.75
29825;BME280;16713;52.916;12.834;2023-05-22T11:22:59;101097.81;;;22.44;50.41
29825;BME280;16713;52.916;12.834;2023-05-22T11:25:27;101089.00;;;22.46;48.61
29825;BME280;16713;52.916;12.834;2023-05-22T11:27:54;101089.78;;;22.46;51.31
29825;BME280;16713;52.916;12.834;2023-05-22T11:30:25;101094.59;;;22.46;50.35
29825;BME280;16713;52.916;12.834;2023-05-22T11:32:52;101082.81;;;22.35;48.49
29825;BME280;16713;52.916;12.834;2023-05-22T11:35:21;101073.75;;;22.27;49.34
29825;BME280;16713;52.916;12.834;2023-05-22T11:37:49;101076.34;;;22.38;49.32
29825;BME280;16713;52.916;12.834;2023-05-22T11:40:20;101072.38;;;22.39;50.23
29825;BME280;16713;52.916;12.834;2023-05-22T11:42:47;101081.47;;;22.43;50.58
29825;BME280;16713;52.916;12.834;2023-05-22T11:45:14;101061.94;;;22.39;48.35
29825;BME280;16713;52.916;12.834;2023-05-22T11:47:42;101064.47;;;22.34;49.63
29825;BME280;16713;52.916;12.834;2023-05-22T11:50:10;101065.22;;;22.34;48.79
29825;BME280;16713;52.916;12.834;2023-05-22T11:52:38;101071.34;;;22.29;46.88
29825;BME280;16713;52.916;12.834;2023-05-22T11:55:06;101064.03;;;22.35;49.22
29825;BME280;16713;52.916;12.834;2023-05-22T11:57:33;101070.81;;;22.34;49.31
29825;BME280;16713;52.916;12.834;2023-05-22T12:00:01;101075.13;;;22.62;48.91
29825;BME280;16713;52.916;12.834;2023-05-22T12:02:28;101079.19;;;23.00;46.03
29825;BME280;16713;52.916;12.834;2023-05-22T12:04:56;101079.59;;;23.38;46.45
29825;BME280;16713;52.916;12.834;2023-05-22T12:07:24;101105.28;;;23.88;45.82
29825;BME280;16713;52.916;12.834;2023-05-22T12:09:52;101078.16;;;23.85;43.80
29825;BME280;16713;52.916;12.834;2023-05-22T12:12:21;101071.50;;;24.11;44.02
29825;BME280;16713;52.916;12.834;2023-05-22T12:14:48;101077.22;;;24.23;43.11
29825;BME280;16713;52.916;12.834;2023-05-22T12:17:16;101074.72;;;24.25;42.34
29825;BME280;16713;52.916;12.834;2023-05-22T12:19:43;101062.13;;;24.17;43.51
29825;BME280;16713;52.916;12.834;2023-05-22T12:22:10;101069.13;;;24.25;43.86
29825;BME280;16713;52.916;12.834;2023-05-22T12:24:41;101062.66;;;24.12;42.09
29825;BME280;16713;52.916;12.834;2023-05-22T12:27:08;101060.19;;;24.14;43.15
29825;BME280;16713;52.916;12.834;2023-05-22T12:29:38;101060.66;;;24.13;42.43
29825;BME280;16713;52.916;12.834;2023-05-22T12:32:09;101059.00;;;24.15;43.46
29825;BME280;16713;52.916;12.834;2023-05-22T12:34:46;101055.28;;;24.02;42.79
29825;BME280;16713;52.916;12.834;2023-05-22T12:37:20;101046.59;;;23.97;43.54
29825;BME280;16713;52.916;12.834;2023-05-22T12:39:58;101048.97;;;23.98;42.45
29825;BME280;16713;52.916;12.834;2023-05-22T12:42:25;101041.00;;;23.97;41.81
29825;BME280;16713;52.916;12.834;2023-05-22T12:44:53;101036.88;;;23.85;42.57
29825;BME280;16713;52.916;12.834;2023-05-22T12:47:21;101025.78;;;23.66;42.78
29825;BME280;16713;52.916;12.834;2023-05-22T12:49:48;101028.66;;;23.78;42.99
29825;BME280;16713;52.916;12.834;2023-05-22T12:52:14;101025.94;;;23.75;42.42
29825;BME280;16713;52.916;12.834;2023-05-22T12:54:41;101025.44;;;23.80;42.83
29825;BME280;16713;52.916;12.834;2023-05-22T12:57:08;101036.13;;;23.85;42.78
29825;BME280;16713;52.916;12.834;2023-05-22T12:59:35;101023.38;;;23.64;44.21
29825;BME280;16713;52.916;12.834;2023-05-22T13:02:05;101013.50;;;23.60;41.92